sensor_id;sensor_type;location;lat;lon;timestamp;P1;durP1;ratioP1;P2;durP2;ratioP2
71164;SDS011;58859;55.132;-1.586;2024-01-06T00:00:50;8.13;;;3.80;;
71164;SDS011;58859;55.132;-1.586;2024-01-06T00:03:15;8.67;;;4.27;;
71164;SDS011;58859;55.132;-1.586;2024-01-06T00:05:41;7.70;;;4.13;;
71164;SDS011;58859;55.132;-1.586;2024-01-06T00:08:06;8.18;;;4.20;;
71164;SDS011;58859;55.132;-1.586;2024-01-06T00:10:31;6.20;;;3.97;;
71164;SDS011;58859;55.132;-1.586;2024-01-06T00:12:57;7.50;;;3.90;;
71164;SDS011;58859;55.132;-1.586;2024-01-06T00:15:22;6.47;;;4.07;;
71164;SDS011;58859;55.132;-1.586;2024-01-06T00:17:49;5.28;;;3.72;;
71164;SDS011;58859;55.132;-1.586;2024-01-06T00:20:14;8.73;;;3.33;;
71164;SDS011;58859;55.132;-1.586;2024-01-06T00:22:39;5.63;;;3.75;;
71164;SDS011;58859;55.132;-1.586;2024-01-06T00:25:07;5.77;;;3.63;;
71164;SDS011;58859;55.132;-1.586;2024-01-06T00:27:33;7.75;;;3.70;;
71164;SDS011;58859;55.132;-1.586;2024-01-06T00:29:58;7.70;;;4.13;;
71164;SDS011;58859;55.132;-1.586;2024-01-06T00:32:23;6.13;;;3.80;;
71164;SDS011;58859;55.132;-1.586;2024-01-06T00:34:49;6.07;;;3.60;;
71164;SDS011;58859;55.132;-1.586;2024-01-06T00:37:14;5.97;;;3.53;;
71164;SDS011;58859;55.132;-1.586;2024-01-06T00:39:40;9.10;;;4.50;;
71164;SDS011;58859;55.132;-1.586;2024-01-06T00:42:05;6.83;;;3.63;;
71164;SDS011;58859;55.132;-1.586;2024-01-06T00:44:31;5.67;;;3.10;;
71164;SDS011;58859;55.132;-1.586;2024-01-06T00:46:57;5.45;;;3.70;;
71164;SDS011;58859;55.132;-1.586;2024-01-06T00:49:22;7.23;;;3.50;;
71164;SDS011;58859;55.132;-1.586;2024-01-06T00:51:48;5.82;;;3.55;;
71164;SDS011;58859;55.132;-1.586;2024-01-06T00:54:13;4.50;;;3.10;;
71164;SDS011;58859;55.132;-1.586;2024-01-06T00:56:39;5.57;;;3.20;;
71164;SDS011;58859;55.132;-1.586;2024-01-06T00:59:04;4.90;;;3.00;;
71164;SDS011;58859;55.132;-1.586;2024-01-06T01:01:30;5.57;;;2.97;;
71164;SDS011;58859;55.132;-1.586;2024-01-06T01:03:55;4.63;;;2.80;;
71164;SDS011;58859;55.132;-1.586;2024-01-06T01:06:20;3.78;;;2.40;;
71164;SDS011;58859;55.132;-1.586;2024-01-06T01:08:46;3.60;;;2.90;;
71164;SDS011;58859;55.132;-1.586;2024-01-06T01:11:12;3.97;;;2.88;;
71164;SDS011;58859;55.132;-1.586;2024-01-06T01:13:37;3.43;;;2.70;;
71164;SDS011;58859;55.132;-1.586;2024-01-06T01:16:03;3.53;;;2.80;;
71164;SDS011;58859;55.132;-1.586;2024-01-06T01:18:29;3.45;;;2.65;;
71164;SDS011;58859;55.132;-1.586;2024-01-06T01:20:54;2.97;;;2.23;;
71164;SDS011;58859;55.132;-1.586;2024-01-06T01:23:19;4.00;;;2.87;;
71164;SDS011;58859;55.132;-1.586;2024-01-06T01:25:45;3.07;;;2.50;;
71164;SDS011;58859;55.132;-1.586;2024-01-06T01:28:10;2.80;;;1.80;;
71164;SDS011;58859;55.132;-1.586;2024-01-06T01:30:36;2.70;;;2.03;;
71164;SDS011;58859;55.132;-1.586;2024-01-06T01:33:01;5.80;;;2.37;;
71164;SDS011;58859;55.132;-1.586;2024-01-06T01:35:27;2.22;;;2.03;;
71164;SDS011;58859;55.132;-1.586;2024-01-06T01:37:52;2.30;;;1.87;;
71164;SDS011;58859;55.132;-1.586;2024-01-06T01:40:18;3.23;;;2.00;;
71164;SDS011;58859;55.132;-1.586;2024-01-06T01:42:43;3.47;;;2.40;;
71164;SDS011;58859;55.132;-1.586;2024-01-06T01:45:09;3.40;;;2.58;;
71164;SDS011;58859;55.132;-1.586;2024-01-06T01:47:34;2.00;;;1.90;;
71164;SDS011;58859;55.132;-1.586;2024-01-06T01:50:01;2.35;;;2.10;;
71164;SDS011;58859;55.132;-1.586;2024-01-06T01:52:28;3.20;;;2.17;;
71164;SDS011;58859;55.132;-1.586;2024-01-06T01:54:53;2.28;;;1.98;;
71164;SDS011;58859;55.132;-1.586;2024-01-06T01:57:19;2.73;;;1.73;;
71164;SDS011;58859;55.132;-1.586;2024-01-06T01:59:46;2.63;;;2.00;;
71164;SDS011;58859;55.132;-1.586;2024-01-06T02:02:12;3.00;;;2.13;;
71164;SDS011;58859;55.132;-1.586;2024-01-06T02:04:38;2.33;;;2.10;;
71164;SDS011;58859;55.132;-1.586;2024-01-06T02:07:04;2.20;;;2.00;;
71164;SDS011;58859;55.132;-1.586;2024-01-06T02:09:29;2.40;;;2.03;;
71164;SDS011;58859;55.132;-1.586;2024-01-06T02:11:58;2.17;;;1.75;;
71164;SDS011;58859;55.132;-1.586;2024-01-06T02:14:24;2.75;;;2.00;;
71164;SDS011;58859;55.132;-1.586;2024-01-06T02:16:49;2.97;;;2.15;;
71164;SDS011;58859;55.132;-1.586;2024-01-06T02:19:15;1.73;;;1.63;;
71164;SDS011;58859;55.132;-1.586;2024-01-06T02:21:43;2.85;;;2.20;;
71164;SDS011;58859;55.132;-1.586;2024-01-06T02:24:09;2.37;;;2.00;;
71164;SDS011;58859;55.132;-1.586;2024-01-06T02:26:35;2.33;;;1.80;;
71164;SDS011;58859;55.132;-1.586;2024-01-06T02:29:01;2.17;;;1.70;;
71164;SDS011;58859;55.132;-1.586;2024-01-06T02:31:26;3.00;;;1.90;;
71164;SDS011;58859;55.132;-1.586;2024-01-06T02:33:52;2.20;;;2.00;;
71164;SDS011;58859;55.132;-1.586;2024-01-06T02:36:18;3.03;;;2.07;;
71164;SDS011;58859;55.132;-1.586;2024-01-06T02:38:43;4.57;;;2.20;;
71164;SDS011;58859;55.132;-1.586;2024-01-06T02:41:09;3.72;;;1.67;;
71164;SDS011;58859;55.132;-1.586;2024-01-06T02:43:34;3.57;;;1.73;;
71164;SDS011;58859;55.132;-1.586;2024-01-06T02:45:59;3.43;;;1.90;;
71164;SDS011;58859;55.132;-1.586;2024-01-06T02:48:25;4.07;;;2.03;;
71164;SDS011;58859;55.132;-1.586;2024-01-06T02:50:51;3.45;;;2.20;;
71164;SDS011;58859;55.132;-1.586;2024-01-06T02:53:16;3.57;;;2.13;;
71164;SDS011;58859;55.132;-1.586;2024-01-06T02:55:42;3.23;;;2.07;;
71164;SDS011;58859;55.132;-1.586;2024-01-06T02:58:07;3.20;;;2.35;;
71164;SDS011;58859;55.132;-1.586;2024-01-06T03:00:32;3.80;;;1.98;;
71164;SDS011;58859;55.132;-1.586;2024-01-06T03:02:58;4.20;;;2.50;;
71164;SDS011;58859;55.132;-1.586;2024-01-06T03:05:23;6.87;;;2.30;;
71164;SDS011;58859;55.132;-1.586;2024-01-06T03:07:49;3.67;;;2.37;;
71164;SDS011;58859;55.132;-1.586;2024-01-06T03:10:14;4.68;;;2.60;;
71164;SDS011;58859;55.132;-1.586;2024-01-06T03:12:40;3.37;;;2.73;;
71164;SDS011;58859;55.132;-1.586;2024-01-06T03:15:05;3.60;;;2.20;;
71164;SDS011;58859;55.132;-1.586;2024-01-06T03:17:31;3.75;;;2.60;;
71164;SDS011;58859;55.132;-1.586;2024-01-06T03:19:57;3.27;;;2.10;;
71164;SDS011;58859;55.132;-1.586;2024-01-06T03:22:22;3.90;;;2.27;;
71164;SDS011;58859;55.132;-1.586;2024-01-06T03:24:48;5.18;;;2.42;;
71164;SDS011;58859;55.132;-1.586;2024-01-06T03:27:13;4.60;;;2.40;;
71164;SDS011;58859;55.132;-1.586;2024-01-06T03:29:39;3.57;;;1.97;;
71164;SDS011;58859;55.132;-1.586;2024-01-06T03:32:05;3.22;;;2.10;;
71164;SDS011;58859;55.132;-1.586;2024-01-06T03:34:30;3.33;;;2.30;;
71164;SDS011;58859;55.132;-1.586;2024-01-06T03:36:56;5.38;;;1.98;;
71164;SDS011;58859;55.132;-1.586;2024-01-06T03:39:21;5.53;;;2.40;;
71164;SDS011;58859;55.132;-1.586;2024-01-06T03:41:47;5.00;;;2.47;;
71164;SDS011;58859;55.132;-1.586;2024-01-06T03:44:13;2.70;;;2.30;;
71164;SDS011;58859;55.132;-1.586;2024-01-06T03:46:39;3.55;;;2.53;;
71164;SDS011;58859;55.132;-1.586;2024-01-06T03:49:04;4.07;;;2.20;;
71164;SDS011;58859;55.132;-1.586;2024-01-06T03:51:30;4.00;;;2.27;;
71164;SDS011;58859;55.132;-1.586;2024-01-06T03:53:55;5.97;;;2.53;;
71164;SDS011;58859;55.132;-1.586;2024-01-06T03:56:20;3.63;;;2.22;;
71164;SDS011;58859;55.132;-1.586;2024-01-06T03:58:46;3.90;;;2.40;;
71164;SDS011;58859;55.132;-1.586;2024-01-06T04:01:12;5.40;;;1.87;;
71164;SDS011;58859;55.132;-1.586;2024-01-06T04:03:38;2.93;;;1.80;;
71164;SDS011;58859;55.132;-1.586;2024-01-06T04:06:05;3.28;;;1.95;;
71164;SDS011;58859;55.132;-1.586;2024-01-06T04:08:31;3.03;;;2.17;;
71164;SDS011;58859;55.132;-1.586;2024-01-06T04:10:56;3.33;;;2.00;;
71164;SDS011;58859;55.132;-1.586;2024-01-06T04:13:22;2.78;;;1.70;;
71164;SDS011;58859;55.132;-1.586;2024-01-06T04:15:49;3.00;;;2.10;;
71164;SDS011;58859;55.132;-1.586;2024-01-06T04:18:15;2.55;;;1.80;;
71164;SDS011;58859;55.132;-1.586;2024-01-06T04:20:41;4.87;;;2.27;;
71164;SDS011;58859;55.132;-1.586;2024-01-06T04:23:06;2.67;;;1.70;;
71164;SDS011;58859;55.132;-1.586;2024-01-06T04:25:31;4.33;;;2.00;;
71164;SDS011;58859;55.132;-1.586;2024-01-06T04:27:57;6.13;;;2.50;;
71164;SDS011;58859;55.132;-1.586;2024-01-06T04:30:22;8.67;;;2.43;;
71164;SDS011;58859;55.132;-1.586;2024-01-06T04:32:49;4.53;;;2.05;;
71164;SDS011;58859;55.132;-1.586;2024-01-06T04:35:14;2.37;;;1.53;;
71164;SDS011;58859;55.132;-1.586;2024-01-06T04:37:40;2.95;;;2.20;;
71164;SDS011;58859;55.132;-1.586;2024-01-06T04:40:06;2.33;;;1.70;;
71164;SDS011;58859;55.132;-1.586;2024-01-06T04:42:33;3.45;;;1.85;;
71164;SDS011;58859;55.132;-1.586;2024-01-06T04:44:58;7.63;;;2.23;;
71164;SDS011;58859;55.132;-1.586;2024-01-06T04:47:24;3.97;;;2.10;;
71164;SDS011;58859;55.132;-1.586;2024-01-06T04:49:50;2.50;;;1.50;;
71164;SDS011;58859;55.132;-1.586;2024-01-06T04:52:15;3.90;;;1.63;;
71164;SDS011;58859;55.132;-1.586;2024-01-06T04:54:41;3.67;;;2.10;;
71164;SDS011;58859;55.132;-1.586;2024-01-06T04:57:06;4.03;;;1.83;;
71164;SDS011;58859;55.132;-1.586;2024-01-06T04:59:31;1.63;;;1.43;;
71164;SDS011;58859;55.132;-1.586;2024-01-06T05:01:57;2.97;;;1.80;;
71164;SDS011;58859;55.132;-1.586;2024-01-06T05:04:23;1.90;;;1.80;;
71164;SDS011;58859;55.132;-1.586;2024-01-06T05:06:49;2.30;;;1.67;;
71164;SDS011;58859;55.132;-1.586;2024-01-06T05:09:16;3.10;;;1.97;;
71164;SDS011;58859;55.132;-1.586;2024-01-06T05:11:43;3.33;;;1.60;;
71164;SDS011;58859;55.132;-1.586;2024-01-06T05:14:08;3.77;;;1.90;;
71164;SDS011;58859;55.132;-1.586;2024-01-06T05:16:34;1.80;;;1.70;;
71164;SDS011;58859;55.132;-1.586;2024-01-06T05:18:59;3.10;;;1.77;;
71164;SDS011;58859;55.132;-1.586;2024-01-06T05:21:25;3.07;;;1.33;;
71164;SDS011;58859;55.132;-1.586;2024-01-06T05:23:50;4.55;;;1.65;;
71164;SDS011;58859;55.132;-1.586;2024-01-06T05:26:16;4.27;;;1.67;;
71164;SDS011;58859;55.132;-1.586;2024-01-06T05:28:41;1.53;;;1.30;;
71164;SDS011;58859;55.132;-1.586;2024-01-06T05:31:07;2.67;;;1.30;;
71164;SDS011;58859;55.132;-1.586;2024-01-06T05:33:32;1.67;;;1.20;;
71164;SDS011;58859;55.132;-1.586;2024-01-06T05:35:58;5.38;;;1.30;;
71164;SDS011;58859;55.132;-1.586;2024-01-06T05:38:23;1.30;;;1.20;;
71164;SDS011;58859;55.132;-1.586;2024-01-06T05:40:48;1.97;;;1.47;;
71164;SDS011;58859;55.132;-1.586;2024-01-06T05:43:14;3.20;;;1.53;;
71164;SDS011;58859;55.132;-1.586;2024-01-06T05:45:39;3.08;;;1.60;;
71164;SDS011;58859;55.132;-1.586;2024-01-06T05:48:09;2.27;;;1.30;;
71164;SDS011;58859;55.132;-1.586;2024-01-06T05:50:36;2.92;;;1.85;;
71164;SDS011;58859;55.132;-1.586;2024-01-06T05:53:05;1.33;;;1.17;;
71164;SDS011;58859;55.132;-1.586;2024-01-06T05:55:31;1.58;;;1.30;;
71164;SDS011;58859;55.132;-1.586;2024-01-06T05:57:56;3.35;;;1.58;;
71164;SDS011;58859;55.132;-1.586;2024-01-06T06:00:22;2.33;;;1.20;;
71164;SDS011;58859;55.132;-1.586;2024-01-06T06:02:47;4.33;;;1.43;;
71164;SDS011;58859;55.132;-1.586;2024-01-06T06:05:13;1.60;;;1.00;;
71164;SDS011;58859;55.132;-1.586;2024-01-06T06:07:38;1.23;;;1.13;;
71164;SDS011;58859;55.132;-1.586;2024-01-06T06:10:05;1.73;;;1.50;;
71164;SDS011;58859;55.132;-1.586;2024-01-06T06:12:35;1.65;;;1.55;;
71164;SDS011;58859;55.132;-1.586;2024-01-06T06:15:00;3.22;;;1.20;;
71164;SDS011;58859;55.132;-1.586;2024-01-06T06:17:28;3.70;;;1.40;;
71164;SDS011;58859;55.132;-1.586;2024-01-06T06:19:54;2.85;;;1.58;;
71164;SDS011;58859;55.132;-1.586;2024-01-06T06:22:19;1.50;;;1.40;;
71164;SDS011;58859;55.132;-1.586;2024-01-06T06:24:46;1.60;;;1.50;;
71164;SDS011;58859;55.132;-1.586;2024-01-06T06:27:12;1.80;;;1.00;;
71164;SDS011;58859;55.132;-1.586;2024-01-06T06:29:37;3.47;;;0.88;;
71164;SDS011;58859;55.132;-1.586;2024-01-06T06:32:03;2.00;;;1.27;;
71164;SDS011;58859;55.132;-1.586;2024-01-06T06:34:28;3.33;;;1.40;;
71164;SDS011;58859;55.132;-1.586;2024-01-06T06:36:54;4.10;;;1.30;;
71164;SDS011;58859;55.132;-1.586;2024-01-06T06:39:19;2.60;;;1.37;;
71164;SDS011;58859;55.132;-1.586;2024-01-06T06:41:44;1.27;;;1.10;;
71164;SDS011;58859;55.132;-1.586;2024-01-06T06:44:10;2.40;;;1.00;;
71164;SDS011;58859;55.132;-1.586;2024-01-06T06:46:36;1.10;;;1.00;;
71164;SDS011;58859;55.132;-1.586;2024-01-06T06:49:01;2.10;;;1.02;;
71164;SDS011;58859;55.132;-1.586;2024-01-06T06:51:27;2.00;;;1.30;;
71164;SDS011;58859;55.132;-1.586;2024-01-06T06:53:53;2.13;;;0.80;;
71164;SDS011;58859;55.132;-1.586;2024-01-06T06:56:19;1.00;;;1.00;;
71164;SDS011;58859;55.132;-1.586;2024-01-06T06:58:44;2.88;;;0.77;;
71164;SDS011;58859;55.132;-1.586;2024-01-06T07:01:10;2.70;;;1.03;;
71164;SDS011;58859;55.132;-1.586;2024-01-06T07:03:35;1.10;;;0.97;;
71164;SDS011;58859;55.132;-1.586;2024-01-06T07:06:01;4.07;;;1.30;;
71164;SDS011;58859;55.132;-1.586;2024-01-06T07:08:27;1.05;;;0.95;;
71164;SDS011;58859;55.132;-1.586;2024-01-06T07:10:52;4.97;;;1.30;;
71164;SDS011;58859;55.132;-1.586;2024-01-06T07:13:18;1.77;;;1.20;;
71164;SDS011;58859;55.132;-1.586;2024-01-06T07:15:43;5.63;;;0.93;;
71164;SDS011;58859;55.132;-1.586;2024-01-06T07:18:10;1.33;;;1.33;;
71164;SDS011;58859;55.132;-1.586;2024-01-06T07:20:35;1.10;;;0.68;;
71164;SDS011;58859;55.132;-1.586;2024-01-06T07:23:00;1.57;;;1.47;;
71164;SDS011;58859;55.132;-1.586;2024-01-06T07:25:28;1.10;;;1.10;;
71164;SDS011;58859;55.132;-1.586;2024-01-06T07:27:53;1.50;;;1.40;;
71164;SDS011;58859;55.132;-1.586;2024-01-06T07:30:18;0.97;;;0.87;;
71164;SDS011;58859;55.132;-1.586;2024-01-06T07:32:44;1.43;;;1.30;;
71164;SDS011;58859;55.132;-1.586;2024-01-06T07:35:09;1.35;;;1.25;;
71164;SDS011;58859;55.132;-1.586;2024-01-06T07:37:35;2.20;;;1.00;;
71164;SDS011;58859;55.132;-1.586;2024-01-06T07:40:00;1.53;;;1.00;;
71164;SDS011;58859;55.132;-1.586;2024-01-06T07:42:26;1.43;;;1.13;;
71164;SDS011;58859;55.132;-1.586;2024-01-06T07:44:51;3.05;;;1.40;;
71164;SDS011;58859;55.132;-1.586;2024-01-06T07:47:17;2.22;;;1.20;;
71164;SDS011;58859;55.132;-1.586;2024-01-06T07:49:42;3.13;;;1.90;;
71164;SDS011;58859;55.132;-1.586;2024-01-06T07:52:07;5.03;;;1.67;;
71164;SDS011;58859;55.132;-1.586;2024-01-06T07:54:33;1.93;;;1.60;;
71164;SDS011;58859;55.132;-1.586;2024-01-06T07:56:58;1.25;;;1.15;;
71164;SDS011;58859;55.132;-1.586;2024-01-06T07:59:24;1.85;;;1.23;;
71164;SDS011;58859;55.132;-1.586;2024-01-06T08:01:49;1.40;;;1.10;;
71164;SDS011;58859;55.132;-1.586;2024-01-06T08:04:15;1.97;;;0.80;;
71164;SDS011;58859;55.132;-1.586;2024-01-06T08:06:40;2.05;;;1.10;;
71164;SDS011;58859;55.132;-1.586;2024-01-06T08:09:06;1.33;;;1.20;;
71164;SDS011;58859;55.132;-1.586;2024-01-06T08:11:31;1.60;;;1.40;;
71164;SDS011;58859;55.132;-1.586;2024-01-06T08:13:57;3.80;;;1.83;;
71164;SDS011;58859;55.132;-1.586;2024-01-06T08:16:22;3.17;;;1.00;;
71164;SDS011;58859;55.132;-1.586;2024-01-06T08:18:47;4.72;;;1.50;;
71164;SDS011;58859;55.132;-1.586;2024-01-06T08:21:13;1.17;;;1.07;;
71164;SDS011;58859;55.132;-1.586;2024-01-06T08:23:38;2.67;;;1.00;;
71164;SDS011;58859;55.132;-1.586;2024-01-06T08:26:04;0.80;;;0.70;;
71164;SDS011;58859;55.132;-1.586;2024-01-06T08:28:30;2.05;;;0.77;;
71164;SDS011;58859;55.132;-1.586;2024-01-06T08:30:55;1.50;;;0.80;;
71164;SDS011;58859;55.132;-1.586;2024-01-06T08:33:21;1.23;;;1.13;;
71164;SDS011;58859;55.132;-1.586;2024-01-06T08:35:46;1.23;;;1.13;;
71164;SDS011;58859;55.132;-1.586;2024-01-06T08:38:13;2.08;;;1.33;;
71164;SDS011;58859;55.132;-1.586;2024-01-06T08:40:38;1.67;;;1.53;;
71164;SDS011;58859;55.132;-1.586;2024-01-06T08:43:04;3.77;;;1.83;;
71164;SDS011;58859;55.132;-1.586;2024-01-06T08:45:29;2.58;;;1.63;;
71164;SDS011;58859;55.132;-1.586;2024-01-06T08:47:56;3.73;;;1.57;;
71164;SDS011;58859;55.132;-1.586;2024-01-06T08:50:22;2.83;;;1.95;;
71164;SDS011;58859;55.132;-1.586;2024-01-06T08:52:47;1.83;;;1.50;;
71164;SDS011;58859;55.132;-1.586;2024-01-06T08:55:12;3.97;;;2.13;;
71164;SDS011;58859;55.132;-1.586;2024-01-06T08:57:38;5.43;;;1.83;;
71164;SDS011;58859;55.132;-1.586;2024-01-06T09:00:04;3.78;;;1.63;;
71164;SDS011;58859;55.132;-1.586;2024-01-06T09:02:30;1.58;;;1.48;;
71164;SDS011;58859;55.132;-1.586;2024-01-06T09:04:56;2.07;;;1.27;;
71164;SDS011;58859;55.132;-1.586;2024-01-06T09:07:21;2.93;;;1.73;;
71164;SDS011;58859;55.132;-1.586;2024-01-06T09:09:46;4.07;;;1.80;;
71164;SDS011;58859;55.132;-1.586;2024-01-06T09:12:12;2.13;;;1.35;;
71164;SDS011;58859;55.132;-1.586;2024-01-06T09:14:37;1.60;;;1.20;;
71164;SDS011;58859;55.132;-1.586;2024-01-06T09:17:03;3.73;;;1.70;;
71164;SDS011;58859;55.132;-1.586;2024-01-06T09:19:29;3.47;;;1.20;;
71164;SDS011;58859;55.132;-1.586;2024-01-06T09:21:55;1.35;;;1.25;;
71164;SDS011;58859;55.132;-1.586;2024-01-06T09:24:21;1.23;;;1.10;;
71164;SDS011;58859;55.132;-1.586;2024-01-06T09:26:46;1.80;;;1.30;;
71164;SDS011;58859;55.132;-1.586;2024-01-06T09:29:12;3.87;;;1.03;;
71164;SDS011;58859;55.132;-1.586;2024-01-06T09:31:37;4.20;;;1.30;;
71164;SDS011;58859;55.132;-1.586;2024-01-06T09:34:03;2.38;;;1.15;;
71164;SDS011;58859;55.132;-1.586;2024-01-06T09:36:30;1.60;;;0.73;;
71164;SDS011;58859;55.132;-1.586;2024-01-06T09:38:56;4.30;;;1.73;;
71164;SDS011;58859;55.132;-1.586;2024-01-06T09:41:21;1.50;;;1.40;;
71164;SDS011;58859;55.132;-1.586;2024-01-06T09:43:48;2.55;;;1.13;;
71164;SDS011;58859;55.132;-1.586;2024-01-06T09:46:24;3.13;;;1.40;;
71164;SDS011;58859;55.132;-1.586;2024-01-06T09:48:55;3.33;;;1.48;;
71164;SDS011;58859;55.132;-1.586;2024-01-06T09:51:21;3.20;;;1.90;;
71164;SDS011;58859;55.132;-1.586;2024-01-06T09:53:48;2.10;;;1.00;;
71164;SDS011;58859;55.132;-1.586;2024-01-06T09:56:17;4.55;;;1.58;;
71164;SDS011;58859;55.132;-1.586;2024-01-06T09:58:43;3.87;;;1.53;;
71164;SDS011;58859;55.132;-1.586;2024-01-06T10:01:10;4.82;;;1.30;;
71164;SDS011;58859;55.132;-1.586;2024-01-06T10:03:36;2.38;;;1.45;;
71164;SDS011;58859;55.132;-1.586;2024-01-06T10:06:02;2.97;;;1.30;;
71164;SDS011;58859;55.132;-1.586;2024-01-06T10:08:29;1.52;;;1.20;;
71164;SDS011;58859;55.132;-1.586;2024-01-06T10:10:57;2.15;;;1.20;;
71164;SDS011;58859;55.132;-1.586;2024-01-06T10:13:23;3.43;;;1.43;;
71164;SDS011;58859;55.132;-1.586;2024-01-06T10:15:49;2.88;;;1.50;;
71164;SDS011;58859;55.132;-1.586;2024-01-06T10:18:15;2.65;;;1.10;;
71164;SDS011;58859;55.132;-1.586;2024-01-06T10:20:40;2.90;;;1.50;;
71164;SDS011;58859;55.132;-1.586;2024-01-06T10:23:06;2.35;;;1.17;;
71164;SDS011;58859;55.132;-1.586;2024-01-06T10:25:32;3.83;;;1.13;;
71164;SDS011;58859;55.132;-1.586;2024-01-06T10:28:00;2.80;;;1.30;;
71164;SDS011;58859;55.132;-1.586;2024-01-06T10:30:26;2.63;;;1.33;;
71164;SDS011;58859;55.132;-1.586;2024-01-06T10:32:52;2.80;;;1.00;;
71164;SDS011;58859;55.132;-1.586;2024-01-06T10:35:18;3.13;;;1.20;;
71164;SDS011;58859;55.132;-1.586;2024-01-06T10:37:43;1.48;;;1.02;;
71164;SDS011;58859;55.132;-1.586;2024-01-06T10:40:10;2.88;;;1.40;;
71164;SDS011;58859;55.132;-1.586;2024-01-06T10:42:38;1.30;;;1.20;;
71164;SDS011;58859;55.132;-1.586;2024-01-06T10:45:06;1.27;;;1.08;;
71164;SDS011;58859;55.132;-1.586;2024-01-06T10:47:34;2.00;;;1.30;;
71164;SDS011;58859;55.132;-1.586;2024-01-06T10:50:03;2.72;;;1.00;;
71164;SDS011;58859;55.132;-1.586;2024-01-06T10:52:29;3.50;;;1.45;;
71164;SDS011;58859;55.132;-1.586;2024-01-06T10:54:55;4.00;;;2.93;;
71164;SDS011;58859;55.132;-1.586;2024-01-06T10:57:22;7.78;;;1.50;;
71164;SDS011;58859;55.132;-1.586;2024-01-06T10:59:52;2.58;;;1.52;;
71164;SDS011;58859;55.132;-1.586;2024-01-06T11:02:17;2.17;;;1.42;;
71164;SDS011;58859;55.132;-1.586;2024-01-06T11:04:47;3.05;;;1.52;;
71164;SDS011;58859;55.132;-1.586;2024-01-06T11:07:15;2.03;;;1.50;;
71164;SDS011;58859;55.132;-1.586;2024-01-06T11:12:27;3.13;;;1.38;;
71164;SDS011;58859;55.132;-1.586;2024-01-06T11:14:53;2.67;;;1.30;;
71164;SDS011;58859;55.132;-1.586;2024-01-06T11:20:20;5.05;;;2.65;;
71164;SDS011;58859;55.132;-1.586;2024-01-06T11:22:47;3.10;;;1.70;;
71164;SDS011;58859;55.132;-1.586;2024-01-06T11:25:14;2.92;;;2.05;;
71164;SDS011;58859;55.132;-1.586;2024-01-06T11:27:42;2.33;;;2.13;;
71164;SDS011;58859;55.132;-1.586;2024-01-06T11:30:29;3.27;;;1.93;;
71164;SDS011;58859;55.132;-1.586;2024-01-06T11:32:55;2.95;;;1.42;;
71164;SDS011;58859;55.132;-1.586;2024-01-06T11:35:26;2.95;;;1.40;;
71164;SDS011;58859;55.132;-1.586;2024-01-06T11:37:54;3.90;;;2.00;;
71164;SDS011;58859;55.132;-1.586;2024-01-06T11:45:27;2.33;;;1.40;;
71164;SDS011;58859;55.132;-1.586;2024-01-06T11:48:12;4.10;;;1.80;;
71164;SDS011;58859;55.132;-1.586;2024-01-06T11:50:38;1.92;;;1.40;;
71164;SDS011;58859;55.132;-1.586;2024-01-06T11:53:05;3.28;;;1.63;;
71164;SDS011;58859;55.132;-1.586;2024-01-06T11:55:32;2.93;;;1.40;;
71164;SDS011;58859;55.132;-1.586;2024-01-06T11:57:58;2.90;;;1.10;;
71164;SDS011;58859;55.132;-1.586;2024-01-06T12:00:28;2.35;;;1.10;;
71164;SDS011;58859;55.132;-1.586;2024-01-06T12:02:57;2.50;;;1.30;;
71164;SDS011;58859;55.132;-1.586;2024-01-06T12:05:24;1.63;;;1.30;;
71164;SDS011;58859;55.132;-1.586;2024-01-06T12:07:58;4.95;;;1.30;;
71164;SDS011;58859;55.132;-1.586;2024-01-06T12:10:26;4.05;;;1.20;;
71164;SDS011;58859;55.132;-1.586;2024-01-06T12:12:56;2.30;;;1.20;;
71164;SDS011;58859;55.132;-1.586;2024-01-06T12:15:23;2.13;;;1.33;;
71164;SDS011;58859;55.132;-1.586;2024-01-06T12:17:49;1.85;;;1.08;;
71164;SDS011;58859;55.132;-1.586;2024-01-06T12:20:14;1.37;;;1.27;;
71164;SDS011;58859;55.132;-1.586;2024-01-06T12:22:40;1.57;;;1.10;;
71164;SDS011;58859;55.132;-1.586;2024-01-06T12:25:05;2.80;;;1.13;;
71164;SDS011;58859;55.132;-1.586;2024-01-06T12:27:31;1.23;;;1.00;;
71164;SDS011;58859;55.132;-1.586;2024-01-06T12:29:57;1.67;;;1.00;;
71164;SDS011;58859;55.132;-1.586;2024-01-06T12:32:23;1.30;;;1.00;;
71164;SDS011;58859;55.132;-1.586;2024-01-06T12:34:48;1.10;;;0.85;;
71164;SDS011;58859;55.132;-1.586;2024-01-06T12:37:14;2.40;;;1.73;;
71164;SDS011;58859;55.132;-1.586;2024-01-06T12:39:39;1.30;;;1.03;;
71164;SDS011;58859;55.132;-1.586;2024-01-06T12:42:07;1.48;;;1.00;;
71164;SDS011;58859;55.132;-1.586;2024-01-06T12:44:33;0.80;;;0.80;;
71164;SDS011;58859;55.132;-1.586;2024-01-06T12:47:02;2.58;;;0.90;;
71164;SDS011;58859;55.132;-1.586;2024-01-06T12:49:27;2.50;;;0.73;;
71164;SDS011;58859;55.132;-1.586;2024-01-06T12:51:54;2.58;;;0.80;;
71164;SDS011;58859;55.132;-1.586;2024-01-06T12:54:19;1.70;;;0.77;;
71164;SDS011;58859;55.132;-1.586;2024-01-06T12:56:45;4.40;;;1.02;;
71164;SDS011;58859;55.132;-1.586;2024-01-06T12:59:10;2.57;;;1.33;;
71164;SDS011;58859;55.132;-1.586;2024-01-06T13:01:36;1.37;;;0.90;;
71164;SDS011;58859;55.132;-1.586;2024-01-06T13:04:02;4.38;;;1.00;;
71164;SDS011;58859;55.132;-1.586;2024-01-06T13:06:27;3.30;;;0.83;;
71164;SDS011;58859;55.132;-1.586;2024-01-06T13:08:53;2.17;;;0.90;;
71164;SDS011;58859;55.132;-1.586;2024-01-06T13:11:19;1.03;;;0.90;;
71164;SDS011;58859;55.132;-1.586;2024-01-06T13:13:44;3.92;;;1.00;;
71164;SDS011;58859;55.132;-1.586;2024-01-06T13:16:10;2.37;;;0.80;;
71164;SDS011;58859;55.132;-1.586;2024-01-06T13:18:36;1.95;;;1.00;;
71164;SDS011;58859;55.132;-1.586;2024-01-06T13:21:01;2.40;;;0.90;;
71164;SDS011;58859;55.132;-1.586;2024-01-06T13:23:27;2.65;;;0.80;;
71164;SDS011;58859;55.132;-1.586;2024-01-06T13:25:52;2.60;;;1.10;;
71164;SDS011;58859;55.132;-1.586;2024-01-06T13:28:19;3.53;;;1.10;;
71164;SDS011;58859;55.132;-1.586;2024-01-06T13:30:44;2.47;;;1.30;;
71164;SDS011;58859;55.132;-1.586;2024-01-06T13:33:09;3.23;;;0.73;;
71164;SDS011;58859;55.132;-1.586;2024-01-06T13:35:35;3.10;;;1.15;;
71164;SDS011;58859;55.132;-1.586;2024-01-06T13:38:02;2.60;;;1.10;;
71164;SDS011;58859;55.132;-1.586;2024-01-06T13:40:29;3.45;;;1.15;;
71164;SDS011;58859;55.132;-1.586;2024-01-06T13:42:55;1.50;;;0.80;;
71164;SDS011;58859;55.132;-1.586;2024-01-06T13:45:21;3.40;;;1.10;;
71164;SDS011;58859;55.132;-1.586;2024-01-06T13:47:47;3.27;;;1.00;;
71164;SDS011;58859;55.132;-1.586;2024-01-06T13:50:13;4.20;;;1.00;;
71164;SDS011;58859;55.132;-1.586;2024-01-06T13:52:41;3.90;;;1.20;;
71164;SDS011;58859;55.132;-1.586;2024-01-06T13:55:06;3.50;;;1.10;;
71164;SDS011;58859;55.132;-1.586;2024-01-06T13:57:33;2.90;;;1.10;;
71164;SDS011;58859;55.132;-1.586;2024-01-06T13:59:59;1.98;;;1.08;;
71164;SDS011;58859;55.132;-1.586;2024-01-06T14:02:25;2.75;;;0.70;;
71164;SDS011;58859;55.132;-1.586;2024-01-06T14:04:51;4.05;;;1.20;;
71164;SDS011;58859;55.132;-1.586;2024-01-06T14:07:16;1.45;;;0.95;;
71164;SDS011;58859;55.132;-1.586;2024-01-06T14:09:44;1.75;;;0.88;;
71164;SDS011;58859;55.132;-1.586;2024-01-06T14:12:12;3.47;;;0.70;;
71164;SDS011;58859;55.132;-1.586;2024-01-06T14:14:38;3.10;;;1.00;;
71164;SDS011;58859;55.132;-1.586;2024-01-06T14:17:04;4.47;;;1.25;;
71164;SDS011;58859;55.132;-1.586;2024-01-06T14:19:30;3.47;;;1.67;;
71164;SDS011;58859;55.132;-1.586;2024-01-06T14:21:55;3.08;;;1.15;;
71164;SDS011;58859;55.132;-1.586;2024-01-06T14:24:21;3.50;;;1.10;;
71164;SDS011;58859;55.132;-1.586;2024-01-06T14:26:50;4.93;;;1.02;;
71164;SDS011;58859;55.132;-1.586;2024-01-06T14:29:16;2.40;;;0.80;;
71164;SDS011;58859;55.132;-1.586;2024-01-06T14:31:42;1.98;;;1.20;;
71164;SDS011;58859;55.132;-1.586;2024-01-06T14:34:08;2.00;;;1.10;;
71164;SDS011;58859;55.132;-1.586;2024-01-06T14:36:34;4.93;;;1.20;;